createdAt,value
2023-03-22T00:02:07.804Z,10.10
2023-03-22T00:04:34.539Z,10.10
2023-03-22T00:07:01.252Z,10.10
2023-03-22T00:09:27.822Z,10.20
2023-03-22T00:11:54.482Z,10.20
2023-03-22T00:14:21.062Z,10.20
2023-03-22T00:16:49.057Z,10.20
2023-03-22T00:19:17.290Z,10.20
2023-03-22T00:21:44.320Z,10.20
2023-03-22T00:24:11.048Z,10.20
2023-03-22T00:26:37.708Z,10.10
2023-03-22T00:29:04.860Z,10.10
2023-03-22T00:31:31.649Z,10.20
2023-03-22T00:33:58.360Z,10.20
2023-03-22T00:36:25.570Z,10.20
2023-03-22T00:38:52.253Z,10.10
2023-03-22T00:41:23.084Z,10.20
2023-03-22T00:43:51.090Z,10.20
2023-03-22T00:46:20.010Z,10.20
2023-03-22T00:48:46.946Z,10.10
2023-03-22T00:51:14.480Z,10.10
2023-03-22T00:53:43.309Z,10.20
2023-03-22T00:56:13.669Z,10.10
2023-03-22T00:58:40.839Z,10.10
2023-03-22T01:01:08.038Z,10.10
2023-03-22T01:03:35.042Z,10.10
2023-03-22T01:06:02.117Z,10.10
2023-03-22T01:08:33.144Z,10.10
2023-03-22T01:11:01.159Z,10.10
2023-03-22T01:13:27.977Z,10.10
2023-03-22T01:15:54.526Z,10.10
2023-03-22T01:18:21.116Z,10.20
2023-03-22T01:20:47.726Z,10.10
2023-03-22T01:23:14.346Z,10.10
2023-03-22T01:25:41.201Z,10.10
2023-03-22T01:28:08.587Z,10.00
2023-03-22T01:30:35.522Z,10.10
2023-03-22T01:33:02.118Z,10.10
2023-03-22T01:35:28.900Z,10.10
2023-03-22T01:37:55.768Z,10.10
2023-03-22T01:40:22.369Z,10.10
2023-03-22T01:42:49.029Z,10.20
2023-03-22T01:45:16.587Z,10.20
2023-03-22T01:47:52.198Z,10.20
2023-03-22T01:50:20.233Z,10.10
2023-03-22T01:52:48.717Z,10.10
2023-03-22T01:55:18.143Z,10.20
2023-03-22T01:57:45.184Z,10.20
2023-03-22T02:00:15.128Z,10.20
2023-03-22T02:02:43.934Z,10.20
2023-03-22T02:05:12.164Z,10.20
2023-03-22T02:07:41.713Z,10.10
2023-03-22T02:10:13.220Z,10.20
2023-03-22T02:12:49.566Z,10.10
2023-03-22T02:15:59.979Z,10.20
2023-03-22T02:18:57.438Z,10.20
2023-03-22T02:21:35.904Z,10.20
2023-03-22T02:24:23.674Z,10.20
2023-03-22T02:26:59.495Z,10.20
2023-03-22T02:30:03.724Z,10.20
2023-03-22T02:33:00.644Z,10.20
2023-03-22T02:35:45.715Z,10.10
2023-03-22T02:38:15.294Z,10.10
2023-03-22T02:41:04.238Z,10.10
2023-03-22T02:43:56.754Z,10.10
2023-03-22T02:46:27.198Z,10.10
2023-03-22T02:48:59.653Z,10.10
2023-03-22T02:51:44.632Z,10.10
2023-03-22T02:54:18.473Z,10.20
2023-03-22T02:56:52.399Z,10.30
2023-03-22T02:59:21.644Z,10.20
2023-03-22T03:01:55.987Z,10.20
2023-03-22T03:04:32.180Z,10.20
2023-03-22T03:07:05.691Z,10.30
2023-03-22T03:09:33.480Z,10.20
2023-03-22T03:12:00.098Z,10.20
2023-03-22T03:14:32.133Z,10.20
2023-03-22T03:17:14.502Z,10.20
2023-03-22T03:20:09.165Z,10.20
2023-03-22T03:22:49.009Z,10.10
2023-03-22T03:25:38.340Z,10.20
2023-03-22T03:28:13.712Z,10.10
2023-03-22T03:31:00.165Z,10.10
2023-03-22T03:33:28.039Z,10.30
2023-03-22T03:36:00.953Z,10.20
2023-03-22T03:38:31.546Z,10.20
2023-03-22T03:41:03.632Z,10.20
2023-03-22T03:43:31.543Z,10.30
2023-03-22T03:45:58.850Z,10.30
2023-03-22T03:48:29.095Z,10.20
2023-03-22T03:50:57.732Z,10.20
2023-03-22T03:53:24.559Z,10.20
2023-03-22T03:55:51.165Z,10.10
2023-03-22T03:58:17.844Z,10.10
2023-03-22T04:00:46.439Z,10.20
2023-03-22T04:03:13.715Z,10.20
2023-03-22T04:05:40.675Z,10.20
2023-03-22T04:08:07.523Z,10.10
2023-03-22T04:10:34.146Z,10.20
2023-03-22T04:13:00.761Z,10.10
2023-03-22T04:15:27.356Z,10.10
2023-03-22T04:17:54.024Z,10.20
2023-03-22T04:20:20.968Z,10.20
2023-03-22T04:22:48.826Z,10.20
2023-03-22T04:25:18.158Z,10.20
2023-03-22T04:27:50.817Z,10.20
2023-03-22T04:30:21.786Z,10.20
2023-03-22T04:32:49.709Z,10.20
2023-03-22T04:35:16.615Z,10.20
2023-03-22T04:37:43.473Z,10.30
2023-03-22T04:40:17.042Z,10.30
2023-03-22T04:42:44.348Z,10.20
2023-03-22T04:45:12.839Z,10.10
2023-03-22T04:47:39.713Z,10.20
2023-03-22T04:50:07.902Z,10.20
2023-03-22T04:52:34.530Z,10.20
2023-03-22T04:55:01.275Z,10.20
2023-03-22T04:57:27.832Z,10.20
2023-03-22T04:59:54.408Z,10.10
2023-03-22T05:02:21.144Z,10.20
2023-03-22T05:04:47.705Z,10.20
2023-03-22T05:07:14.302Z,10.20
2023-03-22T05:09:41.060Z,10.20
2023-03-22T05:12:07.681Z,10.20
2023-03-22T05:14:34.336Z,10.20
2023-03-22T05:17:00.991Z,10.10
2023-03-22T05:19:27.750Z,10.10
2023-03-22T05:21:58.300Z,10.10
2023-03-22T05:24:25.199Z,10.10
2023-03-22T05:26:53.726Z,10.10
2023-03-22T05:29:21.531Z,10.10
2023-03-22T05:31:48.575Z,10.20
2023-03-22T05:34:15.182Z,10.20
2023-03-22T05:36:41.718Z,10.20
2023-03-22T05:39:08.866Z,10.20
2023-03-22T05:41:36.815Z,10.30
2023-03-22T05:44:04.812Z,10.30
2023-03-22T05:46:33.885Z,10.30
2023-03-22T05:49:00.891Z,10.30
2023-03-22T05:51:27.504Z,10.30
2023-03-22T05:53:54.698Z,10.40
2023-03-22T05:56:24.151Z,10.40
2023-03-22T05:58:51.684Z,10.40
2023-03-22T06:01:20.337Z,10.40
2023-03-22T06:03:48.439Z,10.30
2023-03-22T06:06:15.711Z,10.30
2023-03-22T06:08:42.889Z,10.40
2023-03-22T06:11:09.898Z,10.40
2023-03-22T06:13:37.314Z,10.40
2023-03-22T06:16:04.979Z,10.50
2023-03-22T06:18:32.739Z,10.40
2023-03-22T06:20:59.820Z,10.40
2023-03-22T06:23:26.389Z,10.30
2023-03-22T06:25:55.026Z,10.40
2023-03-22T06:28:21.689Z,10.50
2023-03-22T06:30:48.962Z,10.50
2023-03-22T06:33:15.970Z,10.60
2023-03-22T06:35:42.538Z,10.70
2023-03-22T06:38:09.536Z,10.70
2023-03-22T06:40:38.379Z,10.80
2023-03-22T06:43:07.203Z,10.70
2023-03-22T06:45:34.294Z,10.70
2023-03-22T06:48:01.146Z,10.70
2023-03-22T06:50:29.007Z,10.80
2023-03-22T06:52:58.210Z,10.80
2023-03-22T06:55:25.178Z,10.80
2023-03-22T06:57:51.734Z,10.80
2023-03-22T07:00:18.585Z,10.90
2023-03-22T07:02:45.358Z,11.00
2023-03-22T07:05:11.952Z,11.00
2023-03-22T07:07:40.594Z,10.90
2023-03-22T07:10:07.899Z,10.90
2023-03-22T07:12:34.550Z,10.90
2023-03-22T07:15:01.506Z,10.90
2023-03-22T07:17:28.135Z,10.90
2023-03-22T07:19:54.697Z,10.90
2023-03-22T07:22:24.854Z,11.00
2023-03-22T07:24:57.269Z,11.00
2023-03-22T07:27:25.265Z,11.00
2023-03-22T07:29:51.906Z,11.00
2023-03-22T07:32:19.012Z,11.00
2023-03-22T07:34:45.638Z,11.00
2023-03-22T07:37:13.885Z,11.10
2023-03-22T07:39:40.531Z,11.20
2023-03-22T07:42:09.814Z,11.20
2023-03-22T07:44:36.569Z,11.30
2023-03-22T07:47:03.700Z,11.30
2023-03-22T07:49:31.345Z,11.30
2023-03-22T07:51:58.024Z,11.30
2023-03-22T07:54:33.406Z,11.30
2023-03-22T07:57:03.143Z,11.30
2023-03-22T07:59:29.809Z,11.30
2023-03-22T08:01:58.117Z,11.40
2023-03-22T08:04:25.048Z,11.40
2023-03-22T08:06:51.868Z,11.40
2023-03-22T08:09:18.639Z,11.40
2023-03-22T08:11:45.414Z,11.40
2023-03-22T08:14:13.312Z,11.50
2023-03-22T08:16:41.540Z,11.50
2023-03-22T08:19:08.184Z,11.60
2023-03-22T08:21:34.756Z,11.60
2023-03-22T08:24:01.456Z,11.60
2023-03-22T08:26:28.089Z,11.60
2023-03-22T08:28:56.231Z,11.70
2023-03-22T08:31:24.307Z,11.70
2023-03-22T08:33:50.947Z,11.80
2023-03-22T08:36:20.260Z,11.80
2023-03-22T08:38:47.373Z,11.90
2023-03-22T08:41:15.754Z,12.00
2023-03-22T08:43:42.907Z,12.10
2023-03-22T08:46:09.586Z,12.20
2023-03-22T08:48:37.887Z,12.30
2023-03-22T08:51:06.367Z,12.40
2023-03-22T08:53:33.086Z,12.60
2023-03-22T08:56:02.171Z,12.60
2023-03-22T08:58:28.798Z,12.70
2023-03-22T09:00:55.643Z,12.50
2023-03-22T09:03:25.246Z,12.60
2023-03-22T09:05:51.969Z,12.70
2023-03-22T09:08:20.765Z,12.70
2023-03-22T09:10:51.435Z,12.70
2023-03-22T09:13:18.879Z,12.90
2023-03-22T09:15:47.826Z,13.00
2023-03-22T09:18:18.181Z,13.00
2023-03-22T09:20:45.842Z,13.10
2023-03-22T09:23:13.289Z,13.10
2023-03-22T09:25:43.683Z,13.10
2023-03-22T09:28:10.843Z,13.00
2023-03-22T09:30:38.267Z,13.10
2023-03-22T09:33:06.601Z,13.10
2023-03-22T09:35:33.969Z,13.20
2023-03-22T09:38:00.513Z,13.20
2023-03-22T09:40:30.421Z,13.30
2023-03-22T09:43:04.692Z,13.30
2023-03-22T09:45:41.061Z,13.20
2023-03-22T09:48:17.239Z,13.20
2023-03-22T09:50:47.596Z,13.10
2023-03-22T09:53:16.214Z,13.30
2023-03-22T09:55:58.960Z,13.20
2023-03-22T09:58:28.280Z,13.20
2023-03-22T10:01:04.234Z,13.30
2023-03-22T10:04:04.658Z,13.50
2023-03-22T10:06:31.464Z,13.50
2023-03-22T10:09:26.986Z,13.60
2023-03-22T10:12:03.120Z,13.60
2023-03-22T10:14:48.424Z,13.60
2023-03-22T10:17:18.545Z,13.60
2023-03-22T10:19:55.972Z,13.60
2023-03-22T10:22:29.705Z,13.50
2023-03-22T10:24:58.064Z,13.50
2023-03-22T10:27:28.563Z,13.50
2023-03-22T10:29:55.229Z,13.30
2023-03-22T10:32:57.256Z,13.30
2023-03-22T10:35:26.660Z,13.30
2023-03-22T10:37:55.684Z,13.40
2023-03-22T10:40:29.642Z,13.40
2023-03-22T10:43:00.754Z,13.40
2023-03-22T10:45:31.752Z,13.40
2023-03-22T10:48:07.360Z,13.40
2023-03-22T10:50:38.035Z,13.40
2023-03-22T10:53:21.627Z,13.40
2023-03-22T10:55:48.229Z,13.40
2023-03-22T10:58:22.797Z,13.50
2023-03-22T11:00:54.859Z,13.50
2023-03-22T11:03:36.388Z,13.70
2023-03-22T11:06:11.516Z,13.70
2023-03-22T11:09:18.454Z,13.70
2023-03-22T11:11:57.546Z,13.80
2023-03-22T11:14:58.022Z,13.90
2023-03-22T11:17:28.266Z,14.00
2023-03-22T11:20:00.285Z,13.90
2023-03-22T11:22:35.774Z,13.90
2023-03-22T11:25:06.406Z,13.80
2023-03-22T11:27:34.053Z,13.80
2023-03-22T11:30:19.929Z,13.90
2023-03-22T11:32:49.158Z,13.80
2023-03-22T11:35:21.439Z,13.60
2023-03-22T11:37:49.339Z,13.70
2023-03-22T11:40:24.023Z,13.70
2023-03-22T11:42:55.177Z,13.90
2023-03-22T11:45:37.556Z,13.90
2023-03-22T11:48:13.591Z,13.70
2023-03-22T11:50:45.631Z,13.90
2023-03-22T11:53:23.003Z,13.90
2023-03-22T11:55:53.002Z,13.80
2023-03-22T11:58:59.942Z,13.90
2023-03-22T12:01:48.872Z,13.90
2023-03-22T12:04:23.046Z,13.90
2023-03-22T12:06:55.253Z,13.90
2023-03-22T12:09:30.838Z,13.80
2023-03-22T12:12:00.419Z,13.70
2023-03-22T12:14:36.412Z,13.60
2023-03-22T12:17:11.412Z,13.60
2023-03-22T12:19:54.340Z,13.70
2023-03-22T12:22:47.882Z,13.70
2023-03-22T12:25:27.060Z,13.70
2023-03-22T12:27:57.024Z,13.60
2023-03-22T12:30:32.607Z,13.60
2023-03-22T12:32:59.291Z,13.60
2023-03-22T12:35:30.165Z,13.70
2023-03-22T12:37:59.970Z,13.60
2023-03-22T12:40:36.431Z,13.70
2023-03-22T12:43:25.146Z,13.80
2023-03-22T12:46:00.283Z,13.70
2023-03-22T12:48:53.220Z,13.60
2023-03-22T12:51:22.506Z,13.60
2023-03-22T12:53:58.250Z,13.50
2023-03-22T12:56:33.157Z,13.40
2023-03-22T12:59:07.162Z,13.40
2023-03-22T13:01:54.135Z,13.20
2023-03-22T13:04:51.823Z,13.00
2023-03-22T13:07:47.355Z,13.00
2023-03-22T13:10:29.364Z,12.80
2023-03-22T13:13:22.964Z,12.80
2023-03-22T13:16:02.489Z,12.80
2023-03-22T13:18:33.474Z,12.80
2023-03-22T13:21:25.226Z,12.70
2023-03-22T13:24:20.738Z,12.70
2023-03-22T13:26:58.908Z,12.60
2023-03-22T13:29:36.428Z,12.70
2023-03-22T13:32:06.846Z,12.70
2023-03-22T13:34:44.309Z,12.70
2023-03-22T13:37:25.292Z,12.50
2023-03-22T13:39:53.582Z,12.60
2023-03-22T13:42:22.610Z,12.60
2023-03-22T13:45:00.924Z,12.70
2023-03-22T13:47:38.471Z,12.70
2023-03-22T13:50:24.536Z,12.70
2023-03-22T13:53:07.616Z,12.80
2023-03-22T13:55:44.875Z,12.70
2023-03-22T13:58:36.767Z,12.70
2023-03-22T14:01:36.855Z,12.70
2023-03-22T14:04:13.588Z,12.70
2023-03-22T14:06:53.972Z,12.90
2023-03-22T14:09:33.605Z,12.70
2023-03-22T14:12:06.140Z,12.80
2023-03-22T14:14:42.806Z,12.70
2023-03-22T14:17:51.315Z,12.80
2023-03-22T14:20:21.441Z,12.70
